createdAt,value
2022-11-24T00:02:08.452Z,6.03
2022-11-24T00:07:30.695Z,5.72
2022-11-24T00:12:52.237Z,5.00
2022-11-24T00:18:13.633Z,6.28
2022-11-24T00:23:35.708Z,6.25
2022-11-24T00:28:59.683Z,5.90
2022-11-24T00:34:21.716Z,6.60
2022-11-24T00:39:43.083Z,6.85
2022-11-24T00:45:13.615Z,6.72
2022-11-24T00:50:36.027Z,5.25
2022-11-24T00:55:57.368Z,7.00
2022-11-24T01:01:23.110Z,6.20
2022-11-24T01:06:44.693Z,4.78
2022-11-24T01:12:06.318Z,5.18
2022-11-24T01:17:27.846Z,6.43
2022-11-24T01:22:50.103Z,7.18
2022-11-24T01:28:12.052Z,6.07
2022-11-24T01:33:35.700Z,6.70
2022-11-24T01:38:57.286Z,8.07
2022-11-24T01:44:23.700Z,6.28
2022-11-24T01:49:55.964Z,7.10
2022-11-24T01:55:23.142Z,8.75
2022-11-24T02:00:45.898Z,6.85
2022-11-24T02:06:14.275Z,7.40
2022-11-24T02:11:38.937Z,6.25
2022-11-24T02:17:00.619Z,8.52
2022-11-24T02:22:28.231Z,9.18
2022-11-24T02:27:53.811Z,7.50
2022-11-24T02:33:15.981Z,8.50
2022-11-24T02:38:38.517Z,7.63
2022-11-24T02:44:02.616Z,7.97
2022-11-24T02:49:24.629Z,7.72
2022-11-24T02:54:46.162Z,7.43
2022-11-24T03:00:08.543Z,8.13
2022-11-24T03:05:29.727Z,7.68
2022-11-24T03:10:51.029Z,9.85
2022-11-24T03:16:12.369Z,8.07
2022-11-24T03:21:35.998Z,9.45
2022-11-24T03:26:57.278Z,8.88
2022-11-24T03:32:18.584Z,6.68
2022-11-24T03:37:39.860Z,8.05
2022-11-24T03:43:01.312Z,8.98
2022-11-24T03:48:22.930Z,9.23
2022-11-24T03:53:45.211Z,6.55
2022-11-24T03:59:06.799Z,7.65
2022-11-24T04:04:28.328Z,8.00
2022-11-24T04:09:49.553Z,7.20
2022-11-24T04:15:12.995Z,9.25
2022-11-24T04:20:35.030Z,7.65
2022-11-24T04:25:57.167Z,9.65
2022-11-24T04:31:18.618Z,8.20
2022-11-24T04:36:41.134Z,8.73
2022-11-24T04:42:04.493Z,8.27
2022-11-24T04:47:27.005Z,9.25
2022-11-24T04:52:49.822Z,6.95
2022-11-24T04:58:11.744Z,7.30
2022-11-24T05:03:33.023Z,6.93
2022-11-24T05:08:54.728Z,7.50
2022-11-24T05:14:16.559Z,7.90
2022-11-24T05:19:37.932Z,6.57
2022-11-24T05:25:00.903Z,7.25
2022-11-24T05:30:23.009Z,8.75
2022-11-24T05:35:48.577Z,6.25
2022-11-24T05:41:10.040Z,7.75
2022-11-24T05:46:31.870Z,8.38
2022-11-24T05:51:53.477Z,8.32
2022-11-24T05:57:16.579Z,6.97
2022-11-24T06:02:38.502Z,8.13
2022-11-24T06:08:00.948Z,6.53
2022-11-24T06:13:22.514Z,7.15
2022-11-24T06:18:44.138Z,10.20
2022-11-24T06:24:07.073Z,10.25
2022-11-24T06:29:28.673Z,11.60
2022-11-24T06:34:50.229Z,9.35
2022-11-24T06:40:13.095Z,5.97
2022-11-24T06:45:34.584Z,8.02
2022-11-24T06:51:00.575Z,7.70
2022-11-24T06:56:22.430Z,7.80
2022-11-24T07:01:43.848Z,11.00
2022-11-24T07:07:05.566Z,6.03
2022-11-24T07:12:27.289Z,6.95
2022-11-24T07:17:49.042Z,6.97
2022-11-24T07:23:10.519Z,8.05
2022-11-24T07:28:32.362Z,10.35
2022-11-24T07:33:55.017Z,8.75
2022-11-24T07:39:16.398Z,7.60
2022-11-24T07:44:38.124Z,6.88
2022-11-24T07:50:00.643Z,8.82
2022-11-24T07:55:22.211Z,8.23
2022-11-24T08:00:43.727Z,11.38
2022-11-24T08:06:23.584Z,9.63
2022-11-24T08:11:47.146Z,11.93
2022-11-24T08:17:08.813Z,11.45
2022-11-24T08:22:30.710Z,11.88
2022-11-24T08:27:52.111Z,15.27
2022-11-24T08:33:13.434Z,15.55
2022-11-24T08:38:35.263Z,13.63
2022-11-24T08:43:57.030Z,15.13
2022-11-24T08:49:19.623Z,12.52
2022-11-24T08:54:41.201Z,13.55
2022-11-24T09:00:06.076Z,14.27
2022-11-24T09:05:51.217Z,13.75
2022-11-24T09:11:13.806Z,11.07
2022-11-24T09:16:35.494Z,13.20
2022-11-24T09:21:57.245Z,12.93
2022-11-24T09:27:18.936Z,11.77
2022-11-24T09:32:40.575Z,13.50
2022-11-24T09:38:02.221Z,11.13
2022-11-24T09:43:46.193Z,13.00
2022-11-24T09:49:14.389Z,9.57
2022-11-24T09:54:38.724Z,11.07
2022-11-24T10:00:04.993Z,10.65
2022-11-24T10:05:36.426Z,10.93
2022-11-24T10:11:01.690Z,11.75
2022-11-24T10:16:40.557Z,13.85
2022-11-24T10:22:34.982Z,13.77
2022-11-24T10:28:02.261Z,17.08
2022-11-24T10:33:30.370Z,10.80
2022-11-24T10:39:03.185Z,8.77
2022-11-24T10:44:24.995Z,9.10
2022-11-24T10:50:15.406Z,8.40
2022-11-24T10:56:05.784Z,9.35
2022-11-24T11:01:33.871Z,6.20
2022-11-24T11:07:10.223Z,10.75
2022-11-24T11:12:47.379Z,12.30
2022-11-24T11:18:16.966Z,10.60
2022-11-24T11:23:41.083Z,9.18
2022-11-24T11:34:58.179Z,7.20
2022-11-24T11:40:28.625Z,11.27
2022-11-24T11:46:01.721Z,10.38
2022-11-24T11:51:45.112Z,8.70
2022-11-24T11:57:55.891Z,7.65
2022-11-24T12:03:49.251Z,9.77
2022-11-24T12:09:34.072Z,10.00
2022-11-24T12:15:23.410Z,8.70
2022-11-24T12:21:23.064Z,8.27
2022-11-24T12:27:03.687Z,9.48
2022-11-24T12:32:49.660Z,7.78
2022-11-24T12:38:29.776Z,10.05
2022-11-24T12:43:53.608Z,8.48
2022-11-24T12:49:50.639Z,9.90
2022-11-24T12:55:20.024Z,8.77
2022-11-24T13:01:16.528Z,10.63
2022-11-24T13:07:12.798Z,10.35
2022-11-24T13:12:36.579Z,10.55
2022-11-24T13:18:08.551Z,10.70
2022-11-24T13:23:34.055Z,12.50
2022-11-24T13:29:18.325Z,12.48
2022-11-24T13:34:47.209Z,12.17
2022-11-24T13:40:13.492Z,12.32
2022-11-24T13:45:51.402Z,8.65
2022-11-24T13:51:24.700Z,12.45
2022-11-24T13:56:47.251Z,13.23
2022-11-24T14:02:23.802Z,12.45
2022-11-24T14:07:49.340Z,9.43
2022-11-24T14:13:23.510Z,11.60
2022-11-24T14:18:47.784Z,11.13
2022-11-24T14:24:12.646Z,9.93
2022-11-24T14:29:35.023Z,12.27
2022-11-24T14:34:57.281Z,13.57
2022-11-24T14:40:54.847Z,11.02
2022-11-24T14:46:21.342Z,10.20
2022-11-24T14:51:46.101Z,11.80
2022-11-24T14:57:23.151Z,14.10
2022-11-24T15:02:58.394Z,12.90
2022-11-24T15:08:20.079Z,9.07
2022-11-24T15:13:57.253Z,7.60
2022-11-24T15:19:20.335Z,14.15
2022-11-24T15:24:54.618Z,11.93
2022-11-24T15:30:15.925Z,12.48
2022-11-24T15:35:37.808Z,12.18
2022-11-24T15:41:01.557Z,13.10
2022-11-24T15:46:24.460Z,10.52
2022-11-24T15:51:48.379Z,12.45
2022-11-24T15:57:11.354Z,14.68
2022-11-24T16:02:33.809Z,8.75
2022-11-24T16:07:55.655Z,12.43
2022-11-24T16:13:17.333Z,12.38
2022-11-24T16:18:40.356Z,10.90
2022-11-24T16:24:02.035Z,9.63
2022-11-24T16:29:24.545Z,12.95
2022-11-24T16:34:46.208Z,11.25
2022-11-24T16:40:08.491Z,12.38
2022-11-24T16:45:30.108Z,11.98
2022-11-24T16:50:54.254Z,14.75
2022-11-24T16:56:17.701Z,11.77
2022-11-24T17:01:40.737Z,13.18
2022-11-24T17:07:04.232Z,10.43
2022-11-24T17:12:26.236Z,8.07
2022-11-24T17:18:16.239Z,9.30
2022-11-24T17:23:29.375Z,10.70
2022-11-24T17:28:51.863Z,11.27
2022-11-24T17:34:13.520Z,9.63
2022-11-24T17:39:35.059Z,9.60
2022-11-24T17:44:56.847Z,8.93
2022-11-24T17:50:25.432Z,7.55
2022-11-24T17:55:48.817Z,5.70
2022-11-24T18:01:11.498Z,8.10
2022-11-24T18:06:34.414Z,6.97
2022-11-24T18:11:57.204Z,6.82
2022-11-24T18:17:18.988Z,9.55
2022-11-24T18:23:04.640Z,6.70
2022-11-24T18:28:24.007Z,10.48
2022-11-24T18:33:45.729Z,8.32
2022-11-24T18:39:09.231Z,10.85
2022-11-24T18:44:30.685Z,12.10
2022-11-24T18:49:53.198Z,9.85
2022-11-24T18:55:15.476Z,8.77
2022-11-24T19:00:37.703Z,7.15
2022-11-24T19:06:07.509Z,5.63
2022-11-24T19:11:34.287Z,9.63
2022-11-24T19:16:57.113Z,11.05
2022-11-24T19:22:18.790Z,9.30
2022-11-24T19:27:40.629Z,9.00
2022-11-24T19:33:03.554Z,12.93
2022-11-24T19:38:29.694Z,8.98
2022-11-24T19:43:53.698Z,10.90
2022-11-24T19:49:16.696Z,10.02
2022-11-24T19:54:38.421Z,7.43
2022-11-24T20:00:00.031Z,11.95
2022-11-24T20:05:21.773Z,13.88
2022-11-24T20:10:43.528Z,12.07
2022-11-24T20:16:13.641Z,13.10
2022-11-24T20:21:37.375Z,9.97
2022-11-24T20:27:00.210Z,10.18
2022-11-24T20:32:21.550Z,10.88
2022-11-24T20:37:44.369Z,11.57
2022-11-24T20:43:05.865Z,12.65
2022-11-24T20:48:27.531Z,13.57
2022-11-24T20:53:53.345Z,9.73
2022-11-24T20:59:18.040Z,10.10
2022-11-24T21:04:39.335Z,11.10
2022-11-24T21:10:01.612Z,9.15
2022-11-24T21:15:23.896Z,10.05
2022-11-24T21:21:35.856Z,10.73
2022-11-24T21:26:58.598Z,13.00
2022-11-24T21:32:20.803Z,11.10
2022-11-24T21:37:42.026Z,8.07
2022-11-24T21:43:03.839Z,9.05
2022-11-24T21:48:25.859Z,9.88
2022-11-24T21:53:47.924Z,8.43
2022-11-24T21:59:10.244Z,11.57
2022-11-24T22:04:32.557Z,9.80
2022-11-24T22:09:54.017Z,11.45
2022-11-24T22:15:15.818Z,11.32
2022-11-24T22:20:37.723Z,10.82
2022-11-24T22:26:12.630Z,9.50
2022-11-24T22:31:34.320Z,9.57
2022-11-24T22:36:55.516Z,9.50
2022-11-24T22:42:16.718Z,6.05
2022-11-24T22:47:38.402Z,8.45
2022-11-24T22:52:59.899Z,6.85
2022-11-24T22:58:21.429Z,7.18
2022-11-24T23:03:44.325Z,5.45
2022-11-24T23:09:06.300Z,4.60
2022-11-24T23:14:29.070Z,6.00
2022-11-24T23:19:50.661Z,7.78
2022-11-24T23:25:12.633Z,8.93
2022-11-24T23:30:34.006Z,6.03
2022-11-24T23:35:55.380Z,7.93
2022-11-24T23:41:26.705Z,5.78
2022-11-24T23:46:48.465Z,6.68
2022-11-24T23:52:09.894Z,7.38
2022-11-24T23:57:31.931Z,8.02
